sensor_id;sensor_type;location;lat;lon;timestamp;temperature;humidity
12233;DHT22;6179;51.748;8.728;2024-03-02T00:03:55;7.70;98.30
12233;DHT22;6179;51.748;8.728;2024-03-02T00:09:56;7.80;98.30
12233;DHT22;6179;51.748;8.728;2024-03-02T00:15:57;7.80;98.30
12233;DHT22;6179;51.748;8.728;2024-03-02T00:22:00;7.80;98.30
12233;DHT22;6179;51.748;8.728;2024-03-02T00:28:01;7.90;98.00
12233;DHT22;6179;51.748;8.728;2024-03-02T00:34:05;7.80;97.90
12233;DHT22;6179;51.748;8.728;2024-03-02T00:40:06;7.60;98.30
12233;DHT22;6179;51.748;8.728;2024-03-02T00:46:09;7.40;98.30
12233;DHT22;6179;51.748;8.728;2024-03-02T00:52:10;7.70;98.30
12233;DHT22;6179;51.748;8.728;2024-03-02T00:58:11;7.70;98.30
12233;DHT22;6179;51.748;8.728;2024-03-02T01:04:11;7.60;98.30
12233;DHT22;6179;51.748;8.728;2024-03-02T01:10:13;7.70;98.30
12233;DHT22;6179;51.748;8.728;2024-03-02T01:16:14;7.40;98.30
12233;DHT22;6179;51.748;8.728;2024-03-02T01:22:16;7.10;98.30
12233;DHT22;6179;51.748;8.728;2024-03-02T01:28:16;7.30;98.30
12233;DHT22;6179;51.748;8.728;2024-03-02T01:34:17;7.00;98.30
12233;DHT22;6179;51.748;8.728;2024-03-02T01:40:18;7.20;98.30
12233;DHT22;6179;51.748;8.728;2024-03-02T01:46:18;7.10;98.30
12233;DHT22;6179;51.748;8.728;2024-03-02T01:52:19;7.20;98.30
12233;DHT22;6179;51.748;8.728;2024-03-02T01:58:20;7.30;98.30
12233;DHT22;6179;51.748;8.728;2024-03-02T02:04:21;7.20;98.30
12233;DHT22;6179;51.748;8.728;2024-03-02T02:10:27;7.00;98.30
12233;DHT22;6179;51.748;8.728;2024-03-02T02:16:28;6.90;98.30
12233;DHT22;6179;51.748;8.728;2024-03-02T02:22:28;6.60;98.30
12233;DHT22;6179;51.748;8.728;2024-03-02T02:28:29;6.80;98.30
12233;DHT22;6179;51.748;8.728;2024-03-02T02:34:30;6.50;98.30
12233;DHT22;6179;51.748;8.728;2024-03-02T02:40:30;6.50;98.30
12233;DHT22;6179;51.748;8.728;2024-03-02T02:46:31;6.50;98.30
12233;DHT22;6179;51.748;8.728;2024-03-02T02:52:32;6.40;98.30
12233;DHT22;6179;51.748;8.728;2024-03-02T02:58:33;6.40;98.30
12233;DHT22;6179;51.748;8.728;2024-03-02T03:04:34;6.30;98.30
12233;DHT22;6179;51.748;8.728;2024-03-02T03:10:35;6.20;98.30
12233;DHT22;6179;51.748;8.728;2024-03-02T03:16:35;6.30;98.30
12233;DHT22;6179;51.748;8.728;2024-03-02T03:22:37;6.70;98.30
12233;DHT22;6179;51.748;8.728;2024-03-02T03:28:38;6.60;98.30
12233;DHT22;6179;51.748;8.728;2024-03-02T03:34:39;6.50;98.30
12233;DHT22;6179;51.748;8.728;2024-03-02T03:40:41;6.60;98.30
12233;DHT22;6179;51.748;8.728;2024-03-02T03:46:42;6.80;98.30
12233;DHT22;6179;51.748;8.728;2024-03-02T03:52:42;6.80;98.30
12233;DHT22;6179;51.748;8.728;2024-03-02T03:58:44;6.60;98.30
12233;DHT22;6179;51.748;8.728;2024-03-02T04:04:44;6.50;98.30
12233;DHT22;6179;51.748;8.728;2024-03-02T04:10:45;6.70;98.30
12233;DHT22;6179;51.748;8.728;2024-03-02T04:16:46;6.50;98.30
12233;DHT22;6179;51.748;8.728;2024-03-02T04:22:46;6.60;98.30
12233;DHT22;6179;51.748;8.728;2024-03-02T04:28:47;6.60;98.30
12233;DHT22;6179;51.748;8.728;2024-03-02T04:34:47;6.80;98.30
12233;DHT22;6179;51.748;8.728;2024-03-02T04:40:48;6.60;98.30
12233;DHT22;6179;51.748;8.728;2024-03-02T04:46:49;6.40;98.30
12233;DHT22;6179;51.748;8.728;2024-03-02T04:52:49;6.60;98.30
12233;DHT22;6179;51.748;8.728;2024-03-02T04:58:50;6.50;98.30
12233;DHT22;6179;51.748;8.728;2024-03-02T05:04:50;6.40;98.30
12233;DHT22;6179;51.748;8.728;2024-03-02T05:10:51;6.40;98.30
12233;DHT22;6179;51.748;8.728;2024-03-02T05:16:52;6.40;98.30
12233;DHT22;6179;51.748;8.728;2024-03-02T05:22:52;6.40;98.30
12233;DHT22;6179;51.748;8.728;2024-03-02T05:28:53;6.30;98.30
12233;DHT22;6179;51.748;8.728;2024-03-02T05:34:54;6.50;98.30
12233;DHT22;6179;51.748;8.728;2024-03-02T05:40:55;6.50;98.30
12233;DHT22;6179;51.748;8.728;2024-03-02T05:46:56;6.90;98.30
12233;DHT22;6179;51.748;8.728;2024-03-02T05:52:56;6.80;98.30
12233;DHT22;6179;51.748;8.728;2024-03-02T05:58:57;6.70;98.30
12233;DHT22;6179;51.748;8.728;2024-03-02T06:05:11;6.60;98.30
12233;DHT22;6179;51.748;8.728;2024-03-02T06:11:12;6.90;98.30
12233;DHT22;6179;51.748;8.728;2024-03-02T06:17:13;6.80;98.30
12233;DHT22;6179;51.748;8.728;2024-03-02T06:23:13;6.60;98.30
12233;DHT22;6179;51.748;8.728;2024-03-02T06:29:14;6.50;98.30
12233;DHT22;6179;51.748;8.728;2024-03-02T06:35:14;6.70;98.30
12233;DHT22;6179;51.748;8.728;2024-03-02T06:41:15;6.80;98.30
12233;DHT22;6179;51.748;8.728;2024-03-02T06:47:16;6.70;98.30
12233;DHT22;6179;51.748;8.728;2024-03-02T06:53:18;6.90;98.30
12233;DHT22;6179;51.748;8.728;2024-03-02T06:59:19;6.90;98.30
12233;DHT22;6179;51.748;8.728;2024-03-02T07:05:20;7.20;98.30
12233;DHT22;6179;51.748;8.728;2024-03-02T07:11:21;7.30;98.30
12233;DHT22;6179;51.748;8.728;2024-03-02T07:17:22;7.20;98.30
12233;DHT22;6179;51.748;8.728;2024-03-02T07:23:22;7.30;98.30
12233;DHT22;6179;51.748;8.728;2024-03-02T07:29:27;7.40;98.30
12233;DHT22;6179;51.748;8.728;2024-03-02T07:35:28;7.50;98.30
12233;DHT22;6179;51.748;8.728;2024-03-02T07:41:28;7.30;98.30
12233;DHT22;6179;51.748;8.728;2024-03-02T07:47:29;7.40;98.30
12233;DHT22;6179;51.748;8.728;2024-03-02T07:53:30;7.40;98.30
12233;DHT22;6179;51.748;8.728;2024-03-02T07:59:30;7.60;98.30
12233;DHT22;6179;51.748;8.728;2024-03-02T08:05:31;7.50;98.30
12233;DHT22;6179;51.748;8.728;2024-03-02T08:11:32;7.80;98.30
12233;DHT22;6179;51.748;8.728;2024-03-02T08:17:32;7.70;98.30
12233;DHT22;6179;51.748;8.728;2024-03-02T08:23:33;7.70;98.30
12233;DHT22;6179;51.748;8.728;2024-03-02T08:29:34;7.70;98.30
12233;DHT22;6179;51.748;8.728;2024-03-02T08:35:35;7.80;98.30
12233;DHT22;6179;51.748;8.728;2024-03-02T08:41:36;8.20;98.30
12233;DHT22;6179;51.748;8.728;2024-03-02T08:47:37;8.30;98.30
12233;DHT22;6179;51.748;8.728;2024-03-02T08:53:37;8.50;98.30
12233;DHT22;6179;51.748;8.728;2024-03-02T08:59:39;8.80;98.30
12233;DHT22;6179;51.748;8.728;2024-03-02T09:05:39;9.10;97.70
12233;DHT22;6179;51.748;8.728;2024-03-02T09:11:40;9.30;95.20
12233;DHT22;6179;51.748;8.728;2024-03-02T09:17:41;9.60;94.10
12233;DHT22;6179;51.748;8.728;2024-03-02T09:23:41;9.70;95.50
12233;DHT22;6179;51.748;8.728;2024-03-02T09:29:44;9.80;94.20
12233;DHT22;6179;51.748;8.728;2024-03-02T09:35:45;10.20;92.60
12233;DHT22;6179;51.748;8.728;2024-03-02T09:41:47;10.40;92.00
12233;DHT22;6179;51.748;8.728;2024-03-02T09:47:48;10.30;92.00
12233;DHT22;6179;51.748;8.728;2024-03-02T09:53:49;10.30;92.20
12233;DHT22;6179;51.748;8.728;2024-03-02T09:59:50;10.60;91.40
12233;DHT22;6179;51.748;8.728;2024-03-02T10:05:51;10.50;91.30
12233;DHT22;6179;51.748;8.728;2024-03-02T10:11:52;10.70;91.00
12233;DHT22;6179;51.748;8.728;2024-03-02T10:17:52;10.80;90.80
12233;DHT22;6179;51.748;8.728;2024-03-02T10:23:53;10.80;91.00
12233;DHT22;6179;51.748;8.728;2024-03-02T10:29:54;10.90;90.80
12233;DHT22;6179;51.748;8.728;2024-03-02T10:35:55;11.30;89.00
12233;DHT22;6179;51.748;8.728;2024-03-02T10:41:56;11.60;88.60
12233;DHT22;6179;51.748;8.728;2024-03-02T10:47:58;11.80;88.50
12233;DHT22;6179;51.748;8.728;2024-03-02T10:53:59;11.80;87.70
12233;DHT22;6179;51.748;8.728;2024-03-02T11:00:03;12.20;86.70
12233;DHT22;6179;51.748;8.728;2024-03-02T11:06:07;12.30;86.00
12233;DHT22;6179;51.748;8.728;2024-03-02T11:12:29;12.80;84.70
12233;DHT22;6179;51.748;8.728;2024-03-02T11:18:31;12.70;84.50
12233;DHT22;6179;51.748;8.728;2024-03-02T11:24:32;12.70;85.00
12233;DHT22;6179;51.748;8.728;2024-03-02T11:36:34;13.40;82.30
12233;DHT22;6179;51.748;8.728;2024-03-02T11:42:35;13.20;82.60
12233;DHT22;6179;51.748;8.728;2024-03-02T11:48:38;13.20;82.10
12233;DHT22;6179;51.748;8.728;2024-03-02T11:54:41;13.20;83.20
12233;DHT22;6179;51.748;8.728;2024-03-02T12:00:52;13.40;81.10
12233;DHT22;6179;51.748;8.728;2024-03-02T12:06:56;13.50;81.00
12233;DHT22;6179;51.748;8.728;2024-03-02T12:13:07;13.10;83.10
12233;DHT22;6179;51.748;8.728;2024-03-02T12:19:08;13.30;82.50
12233;DHT22;6179;51.748;8.728;2024-03-02T12:25:08;13.50;81.50
12233;DHT22;6179;51.748;8.728;2024-03-02T12:31:09;13.60;81.80
12233;DHT22;6179;51.748;8.728;2024-03-02T12:37:12;13.60;80.40
12233;DHT22;6179;51.748;8.728;2024-03-02T12:43:13;13.80;80.90
12233;DHT22;6179;51.748;8.728;2024-03-02T12:49:15;13.80;81.20
12233;DHT22;6179;51.748;8.728;2024-03-02T12:55:16;13.90;79.90
12233;DHT22;6179;51.748;8.728;2024-03-02T13:01:17;14.20;78.60
12233;DHT22;6179;51.748;8.728;2024-03-02T13:07:20;14.20;78.80
12233;DHT22;6179;51.748;8.728;2024-03-02T13:13:22;14.30;77.90
12233;DHT22;6179;51.748;8.728;2024-03-02T13:19:23;14.40;78.20
12233;DHT22;6179;51.748;8.728;2024-03-02T13:32:21;14.90;76.40
12233;DHT22;6179;51.748;8.728;2024-03-02T13:38:24;15.00;77.30
12233;DHT22;6179;51.748;8.728;2024-03-02T13:44:24;15.10;74.90
12233;DHT22;6179;51.748;8.728;2024-03-02T13:50:25;14.70;76.30
12233;DHT22;6179;51.748;8.728;2024-03-02T13:56:26;14.80;76.00
12233;DHT22;6179;51.748;8.728;2024-03-02T14:02:26;14.50;76.70
12233;DHT22;6179;51.748;8.728;2024-03-02T14:08:27;14.50;75.70
12233;DHT22;6179;51.748;8.728;2024-03-02T14:14:28;14.60;76.70
12233;DHT22;6179;51.748;8.728;2024-03-02T14:20:28;14.50;76.10
12233;DHT22;6179;51.748;8.728;2024-03-02T14:26:29;14.60;76.00
12233;DHT22;6179;51.748;8.728;2024-03-02T14:32:30;14.80;75.80
12233;DHT22;6179;51.748;8.728;2024-03-02T14:38:31;14.80;74.50
12233;DHT22;6179;51.748;8.728;2024-03-02T14:44:31;14.80;74.30
12233;DHT22;6179;51.748;8.728;2024-03-02T14:50:33;14.70;74.30
12233;DHT22;6179;51.748;8.728;2024-03-02T14:56:33;14.50;74.80
12233;DHT22;6179;51.748;8.728;2024-03-02T15:02:34;14.70;75.00
12233;DHT22;6179;51.748;8.728;2024-03-02T15:08:35;14.60;75.20
12233;DHT22;6179;51.748;8.728;2024-03-02T15:14:36;14.80;75.00
12233;DHT22;6179;51.748;8.728;2024-03-02T15:20:38;14.80;75.00
12233;DHT22;6179;51.748;8.728;2024-03-02T15:26:39;14.80;74.00
12233;DHT22;6179;51.748;8.728;2024-03-02T15:32:40;14.40;75.00
12233;DHT22;6179;51.748;8.728;2024-03-02T15:38:40;14.50;74.20
12233;DHT22;6179;51.748;8.728;2024-03-02T15:44:41;14.20;74.50
12233;DHT22;6179;51.748;8.728;2024-03-02T15:50:42;14.30;75.10
12233;DHT22;6179;51.748;8.728;2024-03-02T15:56:43;14.10;75.00
12233;DHT22;6179;51.748;8.728;2024-03-02T16:02:44;14.00;75.00
12233;DHT22;6179;51.748;8.728;2024-03-02T16:14:46;13.40;76.80
12233;DHT22;6179;51.748;8.728;2024-03-02T16:20:46;13.50;76.80
12233;DHT22;6179;51.748;8.728;2024-03-02T16:26:47;13.30;77.30
12233;DHT22;6179;51.748;8.728;2024-03-02T16:32:47;13.40;77.10
12233;DHT22;6179;51.748;8.728;2024-03-02T16:38:48;13.20;77.00
12233;DHT22;6179;51.748;8.728;2024-03-02T16:44:49;13.40;75.90
12233;DHT22;6179;51.748;8.728;2024-03-02T16:50:52;13.10;76.80
12233;DHT22;6179;51.748;8.728;2024-03-02T16:56:52;13.00;76.50
12233;DHT22;6179;51.748;8.728;2024-03-02T17:02:53;12.70;77.50
12233;DHT22;6179;51.748;8.728;2024-03-02T17:08:54;12.80;77.20
12233;DHT22;6179;51.748;8.728;2024-03-02T17:14:54;12.70;77.80
12233;DHT22;6179;51.748;8.728;2024-03-02T17:20:55;12.60;78.50
12233;DHT22;6179;51.748;8.728;2024-03-02T17:26:56;12.30;78.90
12233;DHT22;6179;51.748;8.728;2024-03-02T17:32:58;11.70;80.90
12233;DHT22;6179;51.748;8.728;2024-03-02T17:38:59;11.50;81.20
12233;DHT22;6179;51.748;8.728;2024-03-02T17:44:59;11.80;81.30
12233;DHT22;6179;51.748;8.728;2024-03-02T17:51:00;11.60;81.50
12233;DHT22;6179;51.748;8.728;2024-03-02T17:57:01;11.40;82.30
12233;DHT22;6179;51.748;8.728;2024-03-02T18:03:04;11.70;81.10
12233;DHT22;6179;51.748;8.728;2024-03-02T18:09:04;11.40;82.10
12233;DHT22;6179;51.748;8.728;2024-03-02T18:15:08;11.20;82.70
12233;DHT22;6179;51.748;8.728;2024-03-02T18:21:09;11.00;83.00
12233;DHT22;6179;51.748;8.728;2024-03-02T18:27:09;11.10;83.60
12233;DHT22;6179;51.748;8.728;2024-03-02T18:33:10;10.90;83.70
12233;DHT22;6179;51.748;8.728;2024-03-02T18:39:11;10.50;85.40
12233;DHT22;6179;51.748;8.728;2024-03-02T18:45:11;10.20;86.80
12233;DHT22;6179;51.748;8.728;2024-03-02T18:51:12;10.20;88.10
12233;DHT22;6179;51.748;8.728;2024-03-02T18:57:12;10.30;87.40
12233;DHT22;6179;51.748;8.728;2024-03-02T19:03:13;10.60;86.60
12233;DHT22;6179;51.748;8.728;2024-03-02T19:09:14;10.70;86.30
12233;DHT22;6179;51.748;8.728;2024-03-02T19:15:15;10.50;86.90
12233;DHT22;6179;51.748;8.728;2024-03-02T19:21:16;10.30;87.80
12233;DHT22;6179;51.748;8.728;2024-03-02T19:27:17;10.50;87.00
12233;DHT22;6179;51.748;8.728;2024-03-02T19:33:18;10.60;86.50
12233;DHT22;6179;51.748;8.728;2024-03-02T19:39:18;10.60;85.50
12233;DHT22;6179;51.748;8.728;2024-03-02T19:45:26;10.70;85.00
12233;DHT22;6179;51.748;8.728;2024-03-02T19:51:27;10.50;85.60
12233;DHT22;6179;51.748;8.728;2024-03-02T19:57:27;10.60;85.50
12233;DHT22;6179;51.748;8.728;2024-03-02T20:03:29;10.50;85.20
12233;DHT22;6179;51.748;8.728;2024-03-02T20:09:30;10.50;85.60
12233;DHT22;6179;51.748;8.728;2024-03-02T20:15:31;10.60;84.90
12233;DHT22;6179;51.748;8.728;2024-03-02T20:21:32;10.50;85.40
12233;DHT22;6179;51.748;8.728;2024-03-02T20:27:32;10.10;86.80
12233;DHT22;6179;51.748;8.728;2024-03-02T20:33:33;10.00;87.80
12233;DHT22;6179;51.748;8.728;2024-03-02T20:39:34;9.80;89.40
12233;DHT22;6179;51.748;8.728;2024-03-02T20:45:34;9.80;90.40
12233;DHT22;6179;51.748;8.728;2024-03-02T20:51:36;9.90;90.40
12233;DHT22;6179;51.748;8.728;2024-03-02T20:57:39;9.80;91.50
12233;DHT22;6179;51.748;8.728;2024-03-02T21:03:40;9.90;91.20
12233;DHT22;6179;51.748;8.728;2024-03-02T21:09:42;9.90;91.50
12233;DHT22;6179;51.748;8.728;2024-03-02T21:15:43;9.80;92.60
12233;DHT22;6179;51.748;8.728;2024-03-02T21:21:44;9.80;92.40
12233;DHT22;6179;51.748;8.728;2024-03-02T21:27:44;9.80;92.40
12233;DHT22;6179;51.748;8.728;2024-03-02T21:33:45;9.70;93.20
12233;DHT22;6179;51.748;8.728;2024-03-02T21:39:45;9.80;92.90
12233;DHT22;6179;51.748;8.728;2024-03-02T21:45:46;9.60;93.10
12233;DHT22;6179;51.748;8.728;2024-03-02T21:51:47;9.60;93.30
12233;DHT22;6179;51.748;8.728;2024-03-02T21:57:47;9.40;94.20
12233;DHT22;6179;51.748;8.728;2024-03-02T22:03:48;9.40;94.10
12233;DHT22;6179;51.748;8.728;2024-03-02T22:09:49;9.50;93.90
12233;DHT22;6179;51.748;8.728;2024-03-02T22:15:49;9.50;93.70
12233;DHT22;6179;51.748;8.728;2024-03-02T22:21:50;9.60;93.40
12233;DHT22;6179;51.748;8.728;2024-03-02T22:27:51;9.50;93.60
12233;DHT22;6179;51.748;8.728;2024-03-02T22:33:55;9.80;92.90
12233;DHT22;6179;51.748;8.728;2024-03-02T22:39:56;9.60;93.40
12233;DHT22;6179;51.748;8.728;2024-03-02T22:45:57;9.60;94.10
12233;DHT22;6179;51.748;8.728;2024-03-02T22:51:58;9.70;93.60
12233;DHT22;6179;51.748;8.728;2024-03-02T22:57:59;9.80;93.50
12233;DHT22;6179;51.748;8.728;2024-03-02T23:03:59;9.80;93.50
12233;DHT22;6179;51.748;8.728;2024-03-02T23:10:00;9.70;93.90
12233;DHT22;6179;51.748;8.728;2024-03-02T23:16:00;9.90;93.10
12233;DHT22;6179;51.748;8.728;2024-03-02T23:22:01;9.70;93.30
12233;DHT22;6179;51.748;8.728;2024-03-02T23:28:02;9.70;93.50
12233;DHT22;6179;51.748;8.728;2024-03-02T23:34:03;10.00;92.60
12233;DHT22;6179;51.748;8.728;2024-03-02T23:40:04;9.90;93.00
12233;DHT22;6179;51.748;8.728;2024-03-02T23:46:06;9.90;93.10
12233;DHT22;6179;51.748;8.728;2024-03-02T23:52:07;10.00;93.00
12233;DHT22;6179;51.748;8.728;2024-03-02T23:58:08;9.90;93.10
